This is the latest recevied weather packets stored in our database for station/object CQ0XPG-11. If no packets are shown the sender has not sent any weather packets the latest 10 day(s).
| Time | Temp. | Humidity | Pressure | Rain* | Wind** | Luminosity | Snow |
|---|---|---|---|---|---|---|---|
| 1778063545 | 16.11° C | 69% | 1004.3 hPa | 0 mm | - | - | - |
| 1778062939 | 16.11° C | 71% | 1004.3 hPa | 0 mm | - | - | - |
| 1778062674 | 16.11° C | 70% | 1004.4 hPa | 0 mm | - | - | - |
| 1778062353 | 16.11° C | 77% | 1004.5 hPa | 0 mm | - | - | - |
| 1778061733 | 15.56° C | 81% | 1004.5 hPa | 0 mm | - | - | - |
| 1778061456 | 15.56° C | 80% | 1004.4 hPa | 0 mm | - | - | - |
| 1778061126 | 15° C | 84% | 1004.5 hPa | 0 mm | - | - | - |
| 1778060834 | 15° C | 84% | 1004.5 hPa | 0 mm | - | - | - |
| 1778060539 | 15° C | 86% | 1004.5 hPa | 0 mm | - | - | - |
| 1778060232 | 15° C | 98% | 1004.5 hPa | 0 mm | - | - | - |
| 1778059910 | 15° C | 100% | 1004.6 hPa | 0 mm | - | - | - |
| 1778059647 | 14.44° C | 100% | 1004.7 hPa | 0 mm | - | - | - |
| 1778058089 | 13.33° C | 100% | 1004.7 hPa | 0 mm | - | - | - |
| 1778057801 | 13.33° C | 100% | 1004.7 hPa | 0 mm | - | - | - |
| 1778057490 | 13.33° C | 100% | 1004.8 hPa | 0 mm | - | - | - |
| 1778057195 | 12.78° C | 100% | 1004.7 hPa | 0 mm | - | - | - |
| 1778056588 | 12.22° C | 100% | 1004.8 hPa | 0 mm | - | - | - |
| 1778056275 | 11.67° C | 100% | 1004.8 hPa | 0 mm | - | - | - |
| 1778055982 | 11.67° C | 100% | 1004.8 hPa | 0 mm | - | - | - |
| 1778054775 | 10.56° C | 100% | 1004 hPa | 0 mm | - | - | - |
| 1778054450 | 10° C | 100% | 1003.4 hPa | 0 mm | - | - | - |
| 1778053850 | 8.89° C | 100% | 1003.1 hPa | 0 mm | - | - | - |
| 1778053237 | 8.33° C | 100% | 1002.9 hPa | 0 mm | - | - | - |
| 1778052958 | 7.78° C | 100% | 1002.9 hPa | 0 mm | - | - | - |
| 1778052637 | 7.22° C | 100% | 1002.9 hPa | 0 mm | - | - | - |
* Rain since midnight (hover to see other rain measurements)
** Current wind speed in m/s (hover to see current wind gust speed)